createdAt,value
2022-10-24T00:00:16.844Z,100230.69
2022-10-24T00:02:46.528Z,100221.13
2022-10-24T00:05:18.806Z,100202.16
2022-10-24T00:07:48.267Z,100202.22
2022-10-24T00:10:17.949Z,100189.94
2022-10-24T00:12:47.820Z,100184.00
2022-10-24T00:15:17.557Z,100178.03
2022-10-24T00:17:46.981Z,100172.75
2022-10-24T00:20:18.963Z,100166.72
2022-10-24T00:22:48.503Z,100153.91
2022-10-24T00:25:17.945Z,100149.41
2022-10-24T00:27:47.402Z,100139.06
2022-10-24T00:30:16.993Z,100135.66
2022-10-24T00:32:46.806Z,100144.31
2022-10-24T00:35:18.998Z,100142.41
2022-10-24T00:37:48.477Z,100142.44
2022-10-24T00:40:20.500Z,100145.75
2022-10-24T00:42:50.801Z,100146.53
2022-10-24T00:45:53.301Z,100132.81
2022-10-24T00:48:26.518Z,100127.69
2022-10-24T00:51:00.291Z,100121.44
2022-10-24T00:53:30.478Z,100125.69
2022-10-24T00:56:01.421Z,100134.31
2022-10-24T00:58:32.989Z,100140.16
2022-10-24T01:01:02.907Z,100141.81
2022-10-24T01:03:32.464Z,100137.56
2022-10-24T01:06:25.420Z,100132.38
2022-10-24T01:08:59.993Z,100126.38
2022-10-24T01:11:41.210Z,100120.53
2022-10-24T01:14:18.425Z,100117.94
2022-10-24T01:16:51.540Z,100119.56
2022-10-24T01:19:41.042Z,100117.66
2022-10-24T01:22:18.127Z,100123.59
2022-10-24T01:25:03.773Z,100126.94
2022-10-24T01:27:40.386Z,100132.88
2022-10-24T01:30:13.267Z,100134.56
2022-10-24T01:32:51.308Z,100147.34
2022-10-24T01:35:37.067Z,100144.66
2022-10-24T01:38:11.711Z,100150.69
2022-10-24T01:40:46.412Z,100153.22
2022-10-24T01:43:18.140Z,100150.53
2022-10-24T01:45:54.175Z,100142.88
2022-10-24T01:48:24.896Z,100148.75
2022-10-24T01:50:55.955Z,100144.53
2022-10-24T01:53:28.833Z,100141.88
2022-10-24T01:55:58.918Z,100146.13
2022-10-24T01:58:28.611Z,100139.16
2022-10-24T02:01:03.034Z,100141.72
2022-10-24T02:03:35.371Z,100139.19
2022-10-24T02:06:07.764Z,100140.88
2022-10-24T02:08:41.253Z,100138.41
2022-10-24T02:11:11.787Z,100142.47
2022-10-24T02:13:47.805Z,100142.59
2022-10-24T02:16:21.532Z,100142.59
2022-10-24T02:18:52.956Z,100142.56
2022-10-24T02:21:27.704Z,100135.59
2022-10-24T02:24:02.201Z,100140.13
2022-10-24T02:26:35.492Z,100141.69
2022-10-24T02:29:09.350Z,100142.38
2022-10-24T02:31:44.854Z,100130.31
2022-10-24T02:34:15.691Z,100131.38
2022-10-24T02:36:46.298Z,100129.81
2022-10-24T02:39:16.492Z,100126.31
2022-10-24T02:41:47.349Z,100115.00
2022-10-24T02:44:18.340Z,100114.13
2022-10-24T02:46:51.070Z,100109.59
2022-10-24T02:49:20.579Z,100119.31
2022-10-24T02:51:50.609Z,100109.59
2022-10-24T02:54:20.332Z,100114.72
2022-10-24T02:56:53.484Z,100125.13
2022-10-24T02:59:23.346Z,100114.56
2022-10-24T03:01:55.414Z,100126.50
2022-10-24T03:04:25.065Z,100120.50
2022-10-24T03:06:54.635Z,100124.81
2022-10-24T03:09:24.086Z,100121.44
2022-10-24T03:11:53.662Z,100117.84
2022-10-24T03:14:23.214Z,100123.88
2022-10-24T03:16:55.284Z,100122.28
2022-10-24T03:19:24.799Z,100119.66
2022-10-24T03:21:54.368Z,100114.41
2022-10-24T03:24:36.935Z,100111.03
2022-10-24T03:27:13.385Z,100103.06
2022-10-24T03:29:42.884Z,100096.22
2022-10-24T03:32:15.289Z,100101.22
2022-10-24T03:34:44.901Z,100107.06
2022-10-24T03:37:14.450Z,100110.34
2022-10-24T03:39:43.915Z,100111.28
2022-10-24T03:42:13.474Z,100112.97
2022-10-24T03:44:42.950Z,100106.84
2022-10-24T03:47:15.427Z,100109.50
2022-10-24T03:49:44.941Z,100111.13
2022-10-24T03:52:15.037Z,100105.00
2022-10-24T03:54:44.437Z,100093.81
2022-10-24T03:57:13.908Z,100095.47
2022-10-24T03:59:43.352Z,100099.63
2022-10-24T04:02:15.377Z,100092.59
2022-10-24T04:04:44.838Z,100094.34
2022-10-24T04:07:14.395Z,100094.13
2022-10-24T04:09:43.857Z,100092.44
2022-10-24T04:12:13.428Z,100074.41
2022-10-24T04:14:42.858Z,100074.41
2022-10-24T04:17:14.978Z,100070.03
2022-10-24T04:19:45.038Z,100067.44
2022-10-24T04:22:14.577Z,100063.94
2022-10-24T04:24:44.061Z,100053.63
2022-10-24T04:27:13.649Z,100048.50
2022-10-24T04:29:43.066Z,100040.75
2022-10-24T04:32:15.176Z,100040.03
2022-10-24T04:34:44.645Z,100027.09
2022-10-24T04:37:14.168Z,100036.66
2022-10-24T04:39:43.626Z,100043.91
2022-10-24T04:42:13.050Z,100044.69
2022-10-24T04:44:42.549Z,100064.41
2022-10-24T04:47:12.018Z,100067.16
2022-10-24T04:49:44.191Z,100061.78
2022-10-24T04:52:13.659Z,100062.69
2022-10-24T04:54:43.263Z,100058.31
2022-10-24T04:57:12.760Z,100059.09
2022-10-24T04:59:42.244Z,100055.25
2022-10-24T05:02:11.697Z,100052.34
2022-10-24T05:04:43.759Z,100050.59
2022-10-24T05:07:13.237Z,100050.53
2022-10-24T05:09:43.676Z,100049.97
2022-10-24T05:12:13.265Z,100054.41
2022-10-24T05:14:42.780Z,100043.03
2022-10-24T05:17:12.292Z,100043.75
2022-10-24T05:19:44.440Z,100041.28
2022-10-24T05:22:13.920Z,100045.53
2022-10-24T05:24:43.593Z,100048.91
2022-10-24T05:27:13.084Z,100050.69
2022-10-24T05:29:42.593Z,100056.66
2022-10-24T05:32:12.119Z,100052.50
2022-10-24T05:34:44.221Z,100055.97
2022-10-24T05:37:13.707Z,100068.81
2022-10-24T05:39:43.154Z,100075.75
2022-10-24T05:42:13.396Z,100080.88
2022-10-24T05:44:42.889Z,100086.81
2022-10-24T05:47:12.477Z,100092.78
2022-10-24T05:49:44.456Z,100096.47
2022-10-24T05:52:14.010Z,100095.53
2022-10-24T05:54:55.621Z,100092.91
2022-10-24T05:57:32.973Z,100096.31
2022-10-24T06:00:03.478Z,100093.78
2022-10-24T06:02:33.133Z,100093.78
2022-10-24T06:05:05.472Z,100102.44
2022-10-24T06:07:35.325Z,100100.84
2022-10-24T06:10:05.142Z,100102.78
2022-10-24T06:12:36.179Z,100111.38
2022-10-24T06:15:06.902Z,100115.69
2022-10-24T06:17:36.750Z,100122.59
2022-10-24T06:20:09.870Z,100122.69
2022-10-24T06:22:39.545Z,100127.88
2022-10-24T06:25:09.540Z,100130.63
2022-10-24T06:27:38.953Z,100129.03
2022-10-24T06:30:10.677Z,100138.88
2022-10-24T06:32:43.613Z,100140.66
2022-10-24T06:35:16.812Z,100136.47
2022-10-24T06:37:48.268Z,100147.94
2022-10-24T06:40:18.533Z,100149.78
2022-10-24T06:42:48.265Z,100155.16
2022-10-24T06:45:18.481Z,100162.13
2022-10-24T06:47:51.825Z,100166.50
2022-10-24T06:50:26.190Z,100168.13
2022-10-24T06:52:55.762Z,100176.84
2022-10-24T06:55:25.250Z,100180.38
2022-10-24T06:57:55.782Z,100192.47
2022-10-24T07:00:25.427Z,100192.63
2022-10-24T07:02:54.943Z,100202.19
2022-10-24T07:05:27.003Z,100205.63
2022-10-24T07:07:56.505Z,100207.25
2022-10-24T07:10:26.256Z,100206.47
2022-10-24T07:12:55.828Z,100215.16
2022-10-24T07:15:25.327Z,100220.34
2022-10-24T07:17:54.818Z,100223.00
2022-10-24T07:20:27.197Z,100227.25
2022-10-24T07:22:56.679Z,100226.53
2022-10-24T07:25:26.113Z,100230.03
2022-10-24T07:27:55.840Z,100231.94
2022-10-24T07:30:25.703Z,100228.59
2022-10-24T07:32:56.182Z,100227.78
2022-10-24T07:35:28.245Z,100233.09
2022-10-24T07:37:57.814Z,100231.41
2022-10-24T07:40:27.273Z,100228.97
2022-10-24T07:42:56.735Z,100232.56
2022-10-24T07:45:27.970Z,100232.66
2022-10-24T07:47:58.269Z,100231.00
2022-10-24T07:50:30.319Z,100233.78
2022-10-24T07:52:59.820Z,100231.28
2022-10-24T07:55:29.393Z,100242.59
2022-10-24T07:57:58.906Z,100242.66
2022-10-24T08:00:28.413Z,100245.38
2022-10-24T08:02:58.602Z,100237.75
2022-10-24T08:05:30.845Z,100238.63
2022-10-24T08:08:24.658Z,100238.72
2022-10-24T08:10:50.336Z,100235.47
2022-10-24T08:13:20.095Z,100239.03
2022-10-24T08:15:49.670Z,100237.47
2022-10-24T08:18:19.156Z,100235.09
2022-10-24T08:20:59.497Z,100230.03
2022-10-24T08:23:29.311Z,100225.09
2022-10-24T08:25:58.786Z,100226.97
2022-10-24T08:28:28.359Z,100224.53
2022-10-24T08:30:58.938Z,100226.34
2022-10-24T08:33:28.931Z,100221.13
2022-10-24T08:36:02.692Z,100227.19
2022-10-24T08:38:32.370Z,100217.69
2022-10-24T08:41:03.039Z,100216.75
2022-10-24T08:43:32.503Z,100214.28
2022-10-24T08:46:08.917Z,100215.31
2022-10-24T08:48:44.638Z,100214.50
2022-10-24T08:51:24.736Z,100213.75
2022-10-24T08:53:56.196Z,100211.22
2022-10-24T08:56:27.583Z,100207.88
2022-10-24T08:58:57.390Z,100208.00
2022-10-24T09:01:33.102Z,100215.09
2022-10-24T09:04:06.692Z,100213.63
2022-10-24T09:06:39.804Z,100220.00
2022-10-24T09:09:15.793Z,100215.84
2022-10-24T09:11:48.294Z,100221.97
2022-10-24T09:14:19.473Z,100224.50
2022-10-24T09:16:52.916Z,100214.13
2022-10-24T09:19:24.794Z,100208.25
2022-10-24T09:21:58.792Z,100223.16
2022-10-24T09:24:35.276Z,100231.03
2022-10-24T09:27:07.075Z,100224.19
2022-10-24T09:29:36.953Z,100227.75
2022-10-24T09:32:06.779Z,100220.91
2022-10-24T09:34:36.250Z,100217.53
2022-10-24T09:37:08.539Z,100221.97
2022-10-24T09:39:38.018Z,100217.72
2022-10-24T09:42:07.612Z,100233.41
2022-10-24T09:44:38.113Z,100229.16
2022-10-24T09:47:09.598Z,100223.25
2022-10-24T09:49:42.677Z,100230.31
2022-10-24T09:52:22.034Z,100231.06
2022-10-24T09:55:08.222Z,100227.50
2022-10-24T09:57:42.641Z,100238.84
2022-10-24T10:00:25.317Z,100223.38
2022-10-24T10:03:06.481Z,100229.38
2022-10-24T10:05:47.492Z,100232.91
2022-10-24T10:08:23.698Z,100233.94
2022-10-24T10:11:01.714Z,100224.50
2022-10-24T10:13:31.831Z,100228.91
2022-10-24T10:16:03.875Z,100213.34
2022-10-24T10:18:37.112Z,100231.63
2022-10-24T10:21:13.280Z,100219.56
2022-10-24T10:23:46.917Z,100225.66
2022-10-24T10:26:23.287Z,100223.13
2022-10-24T10:29:02.296Z,100230.94
2022-10-24T10:31:37.508Z,100224.84
2022-10-24T10:34:25.648Z,100228.44
2022-10-24T10:37:06.582Z,100210.25
2022-10-24T10:39:56.010Z,100228.47
2022-10-24T10:42:32.660Z,100227.59
2022-10-24T10:45:09.820Z,100225.94
2022-10-24T10:47:48.455Z,100232.81
2022-10-24T10:50:28.175Z,100232.72
2022-10-24T10:53:00.873Z,100231.94
2022-10-24T10:55:38.942Z,100227.59
2022-10-24T10:58:19.761Z,100228.44
2022-10-24T11:00:55.344Z,100237.00
2022-10-24T11:03:33.705Z,100232.59
2022-10-24T11:06:13.559Z,100236.06
2022-10-24T11:09:12.912Z,100236.00
2022-10-24T11:11:47.399Z,100232.56
2022-10-24T11:14:29.297Z,100232.53
2022-10-24T11:17:01.401Z,100238.59
2022-10-24T11:19:35.254Z,100229.03
2022-10-24T11:22:07.309Z,100237.72
2022-10-24T11:24:46.223Z,100227.34
2022-10-24T11:27:24.233Z,100235.16
2022-10-24T11:29:57.157Z,100234.31
2022-10-24T11:32:31.124Z,100223.97
2022-10-24T11:35:03.441Z,100235.38
2022-10-24T11:37:35.632Z,100240.72
2022-10-24T11:40:09.367Z,100231.34
2022-10-24T11:42:45.393Z,100248.72
2022-10-24T11:45:16.618Z,100241.72
2022-10-24T11:48:05.988Z,100246.91
2022-10-24T11:50:39.409Z,100247.72
2022-10-24T11:53:17.689Z,100239.91
2022-10-24T11:55:49.325Z,100233.81
2022-10-24T11:58:23.339Z,100228.66
2022-10-24T12:01:22.858Z,100233.00
2022-10-24T12:04:09.621Z,100237.38
2022-10-24T12:06:54.937Z,100237.44
2022-10-24T12:09:40.301Z,100241.69
2022-10-24T12:12:18.526Z,100245.09
2022-10-24T12:15:02.278Z,100250.25
2022-10-24T12:18:06.545Z,100254.53
2022-10-24T12:20:36.442Z,100255.41
2022-10-24T12:23:07.469Z,100259.72
2022-10-24T12:25:38.377Z,100250.13
2022-10-24T12:28:10.506Z,100245.78
2022-10-24T12:30:42.822Z,100250.16
2022-10-24T12:33:24.943Z,100238.84
2022-10-24T12:35:57.215Z,100245.09
2022-10-24T12:39:02.342Z,100244.22
2022-10-24T12:41:42.991Z,100250.19
2022-10-24T12:44:47.558Z,100245.94
2022-10-24T12:47:35.889Z,100253.75
2022-10-24T12:50:35.741Z,100252.00
2022-10-24T12:53:08.059Z,100250.19
2022-10-24T12:56:07.362Z,100249.28
2022-10-24T12:58:37.781Z,100248.31
2022-10-24T13:01:09.270Z,100249.13
2022-10-24T13:03:53.830Z,100252.69
2022-10-24T13:06:28.174Z,100248.28
2022-10-24T13:09:16.237Z,100249.09
2022-10-24T13:11:57.416Z,100247.34
2022-10-24T13:14:42.031Z,100234.31
2022-10-24T13:17:14.812Z,100236.53
2022-10-24T13:19:46.787Z,100247.97
2022-10-24T13:22:30.909Z,100248.69
2022-10-24T13:25:00.321Z,100254.81
2022-10-24T13:27:33.041Z,100255.53
2022-10-24T13:30:26.469Z,100253.63
2022-10-24T13:33:25.889Z,100257.06
2022-10-24T13:35:58.576Z,100252.63
2022-10-24T13:38:29.142Z,100272.56
2022-10-24T13:40:58.645Z,100261.22
2022-10-24T13:43:28.179Z,100268.97
2022-10-24T13:46:01.128Z,100272.41
2022-10-24T13:48:32.383Z,100278.38
2022-10-24T13:51:09.815Z,100277.50
2022-10-24T13:53:47.831Z,100283.50
2022-10-24T13:56:17.693Z,100275.50
2022-10-24T13:58:47.716Z,100271.47
2022-10-24T14:01:20.724Z,100255.69
2022-10-24T14:03:51.217Z,100257.44
2022-10-24T14:06:26.309Z,100250.72
2022-10-24T14:09:06.523Z,100255.19
2022-10-24T14:11:37.923Z,100258.00
2022-10-24T14:14:10.965Z,100250.25
2022-10-24T14:16:42.517Z,100264.22
2022-10-24T14:19:18.780Z,100263.34
2022-10-24T14:21:53.967Z,100271.97
2022-10-24T14:24:25.649Z,100281.53
2022-10-24T14:26:56.937Z,100289.28
2022-10-24T14:29:34.082Z,100304.91
2022-10-24T14:32:04.943Z,100289.25
2022-10-24T14:34:36.378Z,100288.38
2022-10-24T14:37:10.945Z,100283.16
2022-10-24T14:39:41.470Z,100290.09
2022-10-24T14:42:15.891Z,100306.56
2022-10-24T14:44:47.338Z,100294.50
2022-10-24T14:47:25.307Z,100292.84
2022-10-24T14:49:55.205Z,100288.56
2022-10-24T14:52:32.174Z,100295.50
2022-10-24T14:55:04.348Z,100291.13
2022-10-24T14:57:35.285Z,100303.19
2022-10-24T15:00:07.671Z,100290.09
2022-10-24T15:02:42.137Z,100291.75
2022-10-24T15:05:19.293Z,100288.31
2022-10-24T15:08:20.424Z,100290.72
2022-10-24T15:10:46.569Z,100294.19
2022-10-24T15:13:21.071Z,100301.97
2022-10-24T15:15:55.224Z,100295.91
2022-10-24T15:18:26.774Z,100304.59
2022-10-24T15:21:02.755Z,100297.63
2022-10-24T15:23:37.273Z,100294.97
2022-10-24T15:26:11.686Z,100300.97
2022-10-24T15:28:47.799Z,100299.16
2022-10-24T15:31:20.158Z,100298.19
2022-10-24T15:33:50.995Z,100294.59
2022-10-24T15:36:23.677Z,100304.06
2022-10-24T15:39:00.011Z,100296.16
2022-10-24T15:41:29.855Z,100299.63
2022-10-24T15:44:00.627Z,100296.88
2022-10-24T15:46:31.306Z,100302.06
2022-10-24T15:49:00.721Z,100313.34
2022-10-24T15:51:30.148Z,100308.16
2022-10-24T15:54:02.229Z,100303.72
2022-10-24T15:56:31.579Z,100319.22
2022-10-24T15:59:01.028Z,100312.28
2022-10-24T16:01:34.048Z,100315.69
2022-10-24T16:04:05.850Z,100322.50
2022-10-24T16:06:35.260Z,100314.63
2022-10-24T16:09:08.754Z,100319.84
2022-10-24T16:11:38.265Z,100329.19
2022-10-24T16:14:07.636Z,100330.88
2022-10-24T16:16:37.100Z,100324.72
2022-10-24T16:19:06.588Z,100323.06
2022-10-24T16:21:36.108Z,100320.41
2022-10-24T16:24:08.778Z,100326.41
2022-10-24T16:26:40.168Z,100333.25
2022-10-24T16:29:09.670Z,100323.75
2022-10-24T16:31:39.356Z,100327.09
2022-10-24T16:34:08.939Z,100335.75
2022-10-24T16:36:40.920Z,100323.34
2022-10-24T16:39:14.486Z,100321.41
2022-10-24T16:41:46.339Z,100323.91
2022-10-24T16:44:16.276Z,100326.31
2022-10-24T16:46:45.741Z,100327.16
2022-10-24T16:49:15.183Z,100334.78
2022-10-24T16:51:47.180Z,100335.50
2022-10-24T16:54:20.800Z,100334.56
2022-10-24T16:56:53.832Z,100323.25
2022-10-24T16:59:23.668Z,100317.13
2022-10-24T17:01:53.412Z,100320.81
2022-10-24T17:04:22.963Z,100332.00
2022-10-24T17:06:52.408Z,100326.72
2022-10-24T17:09:24.549Z,100337.97
2022-10-24T17:11:56.482Z,100336.19
2022-10-24T17:14:26.139Z,100336.19
2022-10-24T17:16:55.704Z,100337.97
2022-10-24T17:19:25.157Z,100344.00
2022-10-24T17:21:55.228Z,100349.22
2022-10-24T17:24:28.193Z,100356.94
2022-10-24T17:26:58.081Z,100350.81
2022-10-24T17:29:31.551Z,100355.94
2022-10-24T17:32:03.422Z,100358.50
2022-10-24T17:34:33.434Z,100355.91
2022-10-24T17:37:07.211Z,100363.72
2022-10-24T17:39:45.720Z,100358.44
2022-10-24T17:42:15.694Z,100361.84
2022-10-24T17:44:45.744Z,100367.78
2022-10-24T17:47:15.455Z,100367.00
2022-10-24T17:49:46.518Z,100363.50
2022-10-24T17:52:19.355Z,100364.34
2022-10-24T17:54:54.558Z,100366.09
2022-10-24T17:57:23.967Z,100367.78
2022-10-24T17:59:54.136Z,100360.81
2022-10-24T18:02:23.787Z,100365.13
2022-10-24T18:04:54.153Z,100365.88
2022-10-24T18:07:23.667Z,100359.69
2022-10-24T18:10:00.328Z,100363.16
2022-10-24T18:12:29.838Z,100369.13
2022-10-24T18:14:59.479Z,100366.38
2022-10-24T18:17:28.954Z,100365.44
2022-10-24T18:19:58.453Z,100359.28
2022-10-24T18:22:28.222Z,100368.75
2022-10-24T18:25:00.226Z,100365.16
2022-10-24T18:27:29.910Z,100365.91
2022-10-24T18:29:59.337Z,100370.06
2022-10-24T18:32:28.966Z,100375.25
2022-10-24T18:34:58.419Z,100378.75
2022-10-24T18:37:28.077Z,100384.72
2022-10-24T18:40:00.866Z,100383.06
2022-10-24T18:42:33.251Z,100382.13
2022-10-24T18:45:04.362Z,100390.75
2022-10-24T18:47:34.617Z,100395.03
2022-10-24T18:50:04.721Z,100397.56
2022-10-24T18:52:42.072Z,100391.44
2022-10-24T18:55:20.706Z,100391.38
2022-10-24T18:57:53.217Z,100394.78
2022-10-24T19:00:25.344Z,100386.84
2022-10-24T19:03:01.398Z,100391.19
2022-10-24T19:05:42.135Z,100399.69
2022-10-24T19:08:15.120Z,100397.91
2022-10-24T19:10:48.490Z,100401.38
2022-10-24T19:13:18.182Z,100399.59
2022-10-24T19:15:50.840Z,100405.44
2022-10-24T19:18:20.377Z,100398.53
2022-10-24T19:20:49.941Z,100402.94
2022-10-24T19:23:20.012Z,100404.59
2022-10-24T19:25:53.111Z,100410.59
2022-10-24T19:28:23.345Z,100406.19
2022-10-24T19:30:54.049Z,100412.25
2022-10-24T19:33:27.864Z,100413.78
2022-10-24T19:35:57.429Z,100412.16
2022-10-24T19:38:27.779Z,100403.53
2022-10-24T19:40:59.971Z,100401.84
2022-10-24T19:43:33.168Z,100400.16
2022-10-24T19:46:19.310Z,100404.44
2022-10-24T19:48:49.789Z,100403.53
2022-10-24T19:51:20.393Z,100414.63
2022-10-24T19:53:50.653Z,100413.72
2022-10-24T19:56:27.408Z,100417.06
2022-10-24T19:58:57.697Z,100409.25
2022-10-24T20:01:28.974Z,100414.41
2022-10-24T20:03:59.377Z,100416.06
2022-10-24T20:06:28.919Z,100416.94
2022-10-24T20:08:58.420Z,100415.16
2022-10-24T20:11:30.901Z,100417.72
2022-10-24T20:14:00.378Z,100419.16
2022-10-24T20:16:29.925Z,100419.25
2022-10-24T20:18:59.402Z,100420.81
2022-10-24T20:21:29.236Z,100416.44
2022-10-24T20:23:58.750Z,100420.53
2022-10-24T20:26:30.813Z,100424.88
2022-10-24T20:29:00.734Z,100419.69
2022-10-24T20:31:32.162Z,100419.75
2022-10-24T20:34:06.971Z,100420.44
2022-10-24T20:36:38.742Z,100415.03
2022-10-24T20:39:08.762Z,100428.06
2022-10-24T20:41:42.285Z,100426.56
2022-10-24T20:44:11.903Z,100413.72
2022-10-24T20:46:42.439Z,100421.50
2022-10-24T20:49:11.971Z,100429.31
2022-10-24T20:51:43.720Z,100424.25
2022-10-24T20:54:13.561Z,100429.44
2022-10-24T20:56:45.541Z,100432.88
2022-10-24T20:59:17.972Z,100445.03
2022-10-24T21:01:47.579Z,100439.00
2022-10-24T21:04:20.034Z,100434.66
2022-10-24T21:06:50.943Z,100431.22
2022-10-24T21:09:20.456Z,100439.78
2022-10-24T21:11:52.542Z,100446.69
2022-10-24T21:14:22.990Z,100435.47
2022-10-24T21:16:52.452Z,100434.50
2022-10-24T21:19:21.957Z,100428.41
2022-10-24T21:21:51.501Z,100432.69
2022-10-24T21:24:21.600Z,100432.56
2022-10-24T21:26:53.771Z,100430.81
2022-10-24T21:29:38.582Z,100429.03
2022-10-24T21:32:08.081Z,100430.66
2022-10-24T21:34:37.846Z,100437.41
2022-10-24T21:37:07.912Z,100436.31
2022-10-24T21:39:37.449Z,100426.69
2022-10-24T21:42:09.603Z,100424.09
2022-10-24T21:44:39.201Z,100411.88
2022-10-24T21:47:08.619Z,100404.94
2022-10-24T21:49:38.212Z,100400.56
2022-10-24T21:52:07.853Z,100400.47
2022-10-24T21:54:37.407Z,100387.53
2022-10-24T21:57:09.477Z,100377.97
2022-10-24T21:59:39.051Z,100375.31
2022-10-24T22:02:09.233Z,100368.47
2022-10-24T22:04:38.848Z,100363.28
2022-10-24T22:07:08.570Z,100365.03
2022-10-24T22:09:38.108Z,100353.84
2022-10-24T22:12:10.464Z,100345.31
2022-10-24T22:14:40.442Z,100343.56
2022-10-24T22:17:09.918Z,100338.41
2022-10-24T22:19:39.427Z,100341.03
2022-10-24T22:22:08.878Z,100335.75
2022-10-24T22:24:41.055Z,100339.97
2022-10-24T22:27:13.174Z,100331.16
2022-10-24T22:29:42.625Z,100331.09
2022-10-24T22:32:15.679Z,100335.47
2022-10-24T22:34:46.024Z,100334.59
2022-10-24T22:37:24.953Z,100337.16
2022-10-24T22:39:56.147Z,100335.56
2022-10-24T22:42:28.651Z,100331.13
2022-10-24T22:44:58.675Z,100339.75
2022-10-24T22:47:39.389Z,100344.91
2022-10-24T22:50:15.594Z,100348.41
2022-10-24T22:52:46.123Z,100346.59
2022-10-24T22:55:20.537Z,100352.66
2022-10-24T22:57:53.545Z,100357.78
2022-10-24T23:00:24.075Z,100366.25
2022-10-24T23:02:56.258Z,100355.09
2022-10-24T23:05:32.848Z,100367.03
2022-10-24T23:08:06.553Z,100377.19
2022-10-24T23:10:36.556Z,100376.19
2022-10-24T23:13:09.501Z,100386.44
2022-10-24T23:15:39.658Z,100381.97
2022-10-24T23:18:12.617Z,100379.31
2022-10-24T23:20:44.591Z,100380.16
2022-10-24T23:23:28.154Z,100382.63
2022-10-24T23:26:04.875Z,100390.25
2022-10-24T23:28:44.225Z,100399.66
2022-10-24T23:31:16.861Z,100385.03
2022-10-24T23:33:48.054Z,100395.94
2022-10-24T23:36:25.253Z,100395.09
2022-10-24T23:38:58.770Z,100395.03
2022-10-24T23:41:31.362Z,100394.03
2022-10-24T23:44:03.981Z,100398.31
2022-10-24T23:46:37.096Z,100404.38
2022-10-24T23:49:15.373Z,100399.22
2022-10-24T23:51:50.330Z,100398.31
2022-10-24T23:54:24.929Z,100400.81
2022-10-24T23:56:55.213Z,100404.25
2022-10-24T23:59:27.478Z,100404.97
